Time;durP1;ratioP1;P1;durP2;ratioP2;P2;SDS_P1;SDS_P2;PMS_P1;PMS_P2;Temp;Humidity;BMP_temperature;BMP_pressure;BME280_temperature;BME280_humidity;BME280_pressure;Samples;Min_cycle;Max_cycle;Signal;HPM_P1;HPM_P2
2021/06/18 00:00:01;;;;;;;8.23;5.05;;;26.80;79.80;;;;;;5090077;28;20434;-70
2021/06/18 00:02:27;;;;;;;4.68;4.28;;;26.70;79.80;;;;;;5104427;28;20031;-70
2021/06/18 00:04:53;;;;;;;9.68;5.88;;;26.70;79.70;;;;;;5093418;28;20056;-70
2021/06/18 00:07:19;;;;;;;6.50;5.90;;;26.60;79.60;;;;;;5074645;28;20109;-70
2021/06/18 00:09:45;;;;;;;6.38;4.78;;;26.60;80.00;;;;;;5075570;28;20077;-70
2021/06/18 00:12:11;;;;;;;7.68;4.82;;;26.70;79.70;;;;;;5092523;28;20024;-70
2021/06/18 00:14:37;;;;;;;9.43;5.00;;;26.70;79.70;;;;;;5093596;28;20461;-70
2021/06/18 00:17:02;;;;;;;7.63;4.90;;;26.70;79.80;;;;;;5093071;28;20024;-69
2021/06/18 00:19:28;;;;;;;6.22;4.93;;;26.70;79.90;;;;;;5092473;28;20044;-69
2021/06/18 00:21:54;;;;;;;11.70;4.85;;;26.60;80.00;;;;;;5108763;28;20028;-69
2021/06/18 00:24:19;;;;;;;5.50;4.07;;;26.60;80.10;;;;;;5092839;28;20024;-69
2021/06/18 00:26:45;;;;;;;6.93;5.18;;;26.50;79.80;;;;;;5092995;28;20029;-69
2021/06/18 00:29:11;;;;;;;5.32;4.50;;;26.60;80.10;;;;;;5092676;28;20074;-69
2021/06/18 00:31:36;;;;;;;8.27;4.60;;;26.60;80.00;;;;;;5093043;28;20024;-69
2021/06/18 00:34:02;;;;;;;6.90;4.72;;;26.60;79.90;;;;;;5093310;28;20122;-69
2021/06/18 00:36:28;;;;;;;7.50;4.57;;;26.60;80.20;;;;;;5108241;28;20122;-69
2021/06/18 00:38:53;;;;;;;4.70;4.28;;;26.60;79.90;;;;;;5093435;28;20047;-69
2021/06/18 00:41:19;;;;;;;4.70;4.28;;;26.60;80.40;;;;;;5108133;28;20458;-69
2021/06/18 00:43:45;;;;;;;4.18;3.88;;;26.50;80.00;;;;;;5073906;28;20051;-70
2021/06/18 00:46:12;;;;;;;5.03;4.53;;;26.50;80.30;;;;;;5088183;28;20025;-69
2021/06/18 00:48:37;;;;;;;5.78;4.22;;;26.50;80.70;;;;;;5055346;28;20085;-69
2021/06/18 00:51:04;;;;;;;5.88;4.55;;;26.50;80.60;;;;;;5055296;28;20449;-69
2021/06/18 00:53:30;;;;;;;4.82;4.43;;;26.50;80.80;;;;;;5072133;28;20024;-69
2021/06/18 00:55:56;;;;;;;5.80;4.22;;;26.50;80.70;;;;;;5072248;28;20032;-69
2021/06/18 00:58:22;;;;;;;4.93;4.53;;;26.50;80.70;;;;;;5071604;28;20024;-70
2021/06/18 01:00:48;;;;;;;6.13;4.38;;;26.50;81.50;;;;;;5072412;28;20029;-70
2021/06/18 01:03:14;;;;;;;6.70;5.15;;;26.40;80.90;;;;;;5053828;28;20505;-70
2021/06/18 01:05:41;;;;;;;5.68;4.72;;;26.40;81.10;;;;;;5072123;28;20408;-69
2021/06/18 01:08:22;;;;;;;4.53;4.07;;;26.40;81.30;;;;;;5054156;28;20032;-69
2021/06/18 01:11:36;;;;;;;5.85;4.10;;;26.40;81.20;;;;;;5072460;28;20032;-70
2021/06/18 01:14:07;;;;;;;6.25;4.28;;;26.30;81.30;;;;;;5034425;28;20092;-70
2021/06/18 01:16:57;;;;;;;6.72;4.05;;;26.30;81.60;;;;;;5052961;28;20074;-70
2021/06/18 01:19:39;;;;;;;5.25;4.32;;;26.30;81.50;;;;;;5053331;28;20049;-70
2021/06/18 01:22:11;;;;;;;5.68;3.80;;;26.30;81.50;;;;;;5071736;28;20032;-70
2021/06/18 01:25:03;;;;;;;4.53;4.13;;;26.30;81.60;;;;;;5054100;28;20039;-69
2021/06/18 01:27:31;;;;;;;4.85;4.38;;;26.20;80.80;;;;;;5047218;28;20047;-70
2021/06/18 01:30:19;;;;;;;7.80;4.30;;;26.20;80.60;;;;;;5072113;28;20028;-70
2021/06/18 01:33:01;;;;;;;4.35;3.95;;;26.10;81.00;;;;;;5071614;28;20032;-70
2021/06/18 01:35:41;;;;;;;11.48;4.50;;;26.00;81.30;;;;;;5053084;28;20029;-70
2021/06/18 01:38:08;;;;;;;10.18;4.00;;;26.00;81.00;;;;;;5053661;28;20126;-70
2021/06/18 01:40:36;;;;;;;6.47;4.53;;;25.90;81.30;;;;;;5052803;28;20442;-69
2021/06/18 01:43:06;;;;;;;5.13;4.40;;;25.80;81.40;;;;;;5053739;28;20094;-71
2021/06/18 01:45:33;;;;;;;5.43;4.40;;;25.80;81.00;;;;;;5071346;28;20036;-71
2021/06/18 01:48:02;;;;;;;7.13;4.57;;;25.90;81.10;;;;;;5053598;28;20559;-71
2021/06/18 01:50:30;;;;;;;7.63;4.28;;;25.80;79.90;;;;;;5071128;28;20028;-70
2021/06/18 01:53:12;;;;;;;5.00;3.80;;;25.80;80.30;;;;;;5053581;28;20086;-72
2021/06/18 01:55:41;;;;;;;6.75;4.38;;;25.80;80.20;;;;;;5053592;28;20399;-71
2021/06/18 01:58:09;;;;;;;7.68;4.47;;;25.70;80.80;;;;;;5053422;28;20027;-71
2021/06/18 02:00:40;;;;;;;10.68;4.55;;;25.70;80.70;;;;;;5052701;28;20111;-71
2021/06/18 02:03:09;;;;;;;5.05;4.13;;;25.80;80.60;;;;;;5071361;28;20032;-71
2021/06/18 02:05:37;;;;;;;4.53;4.10;;;25.70;81.10;;;;;;5052391;28;20129;-69
2021/06/18 02:08:05;;;;;;;6.47;3.70;;;25.60;81.80;;;;;;5071168;28;20385;-70
2021/06/18 02:10:33;;;;;;;7.05;4.35;;;25.60;81.50;;;;;;5070109;28;20028;-70
2021/06/18 02:13:01;;;;;;;5.97;3.97;;;25.50;81.90;;;;;;5070756;28;20032;-70
2021/06/18 02:15:28;;;;;;;4.68;4.28;;;25.50;81.80;;;;;;5070189;28;20029;-70
2021/06/18 02:17:56;;;;;;;5.35;4.20;;;25.50;82.00;;;;;;5052497;28;20136;-70
2021/06/18 02:20:23;;;;;;;6.05;4.00;;;25.50;82.50;;;;;;5070745;28;20131;-71
2021/06/18 02:22:50;;;;;;;5.80;4.10;;;25.50;82.40;;;;;;5070527;28;20542;-70
2021/06/18 02:25:17;;;;;;;5.20;4.10;;;25.50;82.10;;;;;;5070033;28;20033;-70
2021/06/18 02:27:44;;;;;;;4.03;3.63;;;25.40;82.30;;;;;;5052184;28;20028;-70
2021/06/18 02:30:13;;;;;;;5.82;4.18;;;25.40;82.20;;;;;;5071087;28;20462;-70
2021/06/18 02:32:40;;;;;;;8.75;4.50;;;25.40;82.20;;;;;;5052398;28;20101;-70
2021/06/18 02:35:06;;;;;;;6.10;4.45;;;25.40;82.30;;;;;;5052651;28;20078;-70
2021/06/18 02:37:32;;;;;;;6.65;4.72;;;25.40;82.40;;;;;;5069819;28;20036;-70
2021/06/18 02:39:58;;;;;;;4.97;4.47;;;25.40;82.30;;;;;;5070294;28;20051;-69
2021/06/18 02:42:25;;;;;;;6.53;4.60;;;25.30;82.80;;;;;;5051584;28;20178;-69
2021/06/18 02:44:51;;;;;;;6.72;4.65;;;25.10;82.80;;;;;;5070580;28;20035;-69
2021/06/18 02:47:34;;;;;;;8.27;4.88;;;25.10;83.30;;;;;;5051785;28;20033;-70
2021/06/18 02:50:05;;;;;;;5.95;3.72;;;25.10;83.00;;;;;;5052617;28;20024;-70
2021/06/18 02:52:39;;;;;;;6.15;4.50;;;25.00;83.30;;;;;;5051770;28;20243;-70
2021/06/18 02:55:11;;;;;;;7.22;4.65;;;25.10;83.20;;;;;;5070333;28;20032;-69
2021/06/18 02:58:05;;;;;;;8.75;5.03;;;25.10;83.40;;;;;;5069563;28;20025;-69
2021/06/18 03:00:33;;;;;;;7.25;4.07;;;25.10;83.20;;;;;;5051879;28;20029;-69
2021/06/18 03:02:59;;;;;;;5.40;4.35;;;25.10;83.30;;;;;;5052199;28;20035;-69
2021/06/18 03:05:27;;;;;;;7.20;3.65;;;25.10;83.10;;;;;;5051250;28;20024;-69
2021/06/18 03:07:59;;;;;;;5.30;3.38;;;25.00;82.90;;;;;;5070224;28;20024;-70
2021/06/18 03:10:26;;;;;;;4.20;3.75;;;25.10;82.80;;;;;;5069695;28;20029;-69
2021/06/18 03:13:02;;;;;;;7.57;5.47;;;25.10;82.70;;;;;;5052058;28;20042;-70
2021/06/18 03:15:31;;;;;;;4.35;3.95;;;25.00;83.20;;;;;;5051483;28;20025;-70
2021/06/18 03:17:59;;;;;;;5.72;4.45;;;25.00;82.70;;;;;;5048209;28;20049;-70
2021/06/18 03:20:26;;;;;;;5.82;4.32;;;25.00;82.70;;;;;;5049308;28;20136;-70
2021/06/18 03:22:56;;;;;;;6.55;4.05;;;24.90;83.10;;;;;;5049827;28;20049;-70
2021/06/18 03:25:24;;;;;;;5.50;4.10;;;24.90;83.00;;;;;;5049863;28;20354;-70
2021/06/18 03:27:52;;;;;;;5.13;4.63;;;24.80;83.20;;;;;;5049979;28;20033;-69
2021/06/18 03:30:19;;;;;;;9.98;5.15;;;24.80;83.40;;;;;;5081678;28;20021;-71
2021/06/18 03:32:46;;;;;;;14.98;4.03;;;24.80;83.30;;;;;;5048552;28;20060;-69
2021/06/18 03:35:13;;;;;;;4.65;4.18;;;24.80;83.10;;;;;;5049995;28;20124;-69
2021/06/18 03:37:39;;;;;;;6.10;4.25;;;24.80;83.50;;;;;;5049442;28;20383;-69
2021/06/18 03:40:06;;;;;;;4.82;4.03;;;24.80;83.80;;;;;;5053818;28;20039;-69
2021/06/18 03:42:32;;;;;;;7.95;4.05;;;24.80;84.00;;;;;;5052984;28;20037;-70
2021/06/18 03:44:59;;;;;;;6.65;4.32;;;24.80;83.70;;;;;;5053864;28;20458;-70
2021/06/18 03:47:27;;;;;;;5.82;4.90;;;24.70;83.60;;;;;;5053318;28;20448;-69
2021/06/18 03:49:53;;;;;;;6.32;4.47;;;24.80;83.70;;;;;;5051690;28;20339;-69
2021/06/18 03:52:19;;;;;;;5.00;4.50;;;24.70;83.60;;;;;;5051365;28;20416;-71
2021/06/18 03:54:45;;;;;;;5.18;3.97;;;24.70;83.50;;;;;;5051868;28;20125;-69
2021/06/18 03:57:14;;;;;;;9.88;4.20;;;24.70;83.80;;;;;;5052052;28;20056;-69
2021/06/18 03:59:42;;;;;;;4.57;4.18;;;24.70;84.00;;;;;;5052520;28;20040;-69
2021/06/18 04:02:10;;;;;;;6.32;4.38;;;24.70;84.00;;;;;;5051923;28;20029;-69
2021/06/18 04:04:37;;;;;;;6.35;3.90;;;24.80;83.90;;;;;;5051448;28;20074;-69
2021/06/18 04:07:06;;;;;;;6.38;4.80;;;24.80;83.90;;;;;;5051945;28;20386;-69
2021/06/18 04:09:31;;;;;;;7.40;4.85;;;24.80;83.90;;;;;;5052439;28;20052;-69
2021/06/18 04:12:02;;;;;;;15.95;5.82;;;24.80;84.10;;;;;;5052624;28;20025;-70
2021/06/18 04:14:28;;;;;;;10.47;4.97;;;24.70;85.00;;;;;;5052319;28;20048;-70
2021/06/18 04:16:54;;;;;;;9.60;5.40;;;24.80;85.70;;;;;;5053379;28;20068;-69
2021/06/18 04:19:20;;;;;;;10.18;5.43;;;24.80;86.00;;;;;;5067600;28;20075;-72
2021/06/18 04:21:46;;;;;;;11.63;4.43;;;24.70;86.40;;;;;;5055272;28;20482;-68
2021/06/18 04:24:14;;;;;;;6.60;4.93;;;24.60;86.40;;;;;;5073029;28;20371;-69
2021/06/18 04:26:40;;;;;;;7.03;5.28;;;24.70;86.10;;;;;;5054342;28;20033;-69
2021/06/18 04:29:06;;;;;;;6.32;4.50;;;24.70;86.40;;;;;;5073083;28;20052;-69
2021/06/18 04:31:32;;;;;;;5.53;4.47;;;24.60;86.40;;;;;;5072328;28;20418;-69
2021/06/18 04:33:58;;;;;;;10.13;5.07;;;24.70;86.20;;;;;;5072749;28;20020;-69
2021/06/18 04:36:23;;;;;;;7.65;5.07;;;24.70;86.20;;;;;;5054260;28;20032;-69
2021/06/18 04:38:49;;;;;;;4.75;4.35;;;24.70;86.10;;;;;;5072210;28;20385;-69
2021/06/18 04:41:15;;;;;;;5.28;4.88;;;24.80;86.00;;;;;;5072052;28;20021;-69
2021/06/18 04:43:40;;;;;;;6.53;4.55;;;24.80;85.70;;;;;;5071784;28;20360;-69
2021/06/18 04:46:06;;;;;;;7.15;4.65;;;24.80;85.80;;;;;;5072472;28;20028;-69
2021/06/18 04:48:31;;;;;;;8.85;5.45;;;24.60;84.60;;;;;;5053668;28;20044;-69
2021/06/18 04:50:57;;;;;;;6.07;4.60;;;24.60;84.00;;;;;;5072746;28;20039;-69
2021/06/18 04:53:23;;;;;;;7.53;4.70;;;24.30;84.90;;;;;;5071728;28;20069;-69
2021/06/18 04:55:49;;;;;;;9.43;5.68;;;24.30;85.40;;;;;;5072174;28;20059;-68
2021/06/18 04:58:14;;;;;;;12.75;5.70;;;24.20;85.30;;;;;;5053903;28;20031;-69
2021/06/18 05:00:40;;;;;;;6.05;5.15;;;24.30;85.40;;;;;;5053477;28;20025;-69
2021/06/18 05:03:06;;;;;;;8.25;5.88;;;24.40;84.90;;;;;;5053953;28;20485;-69
2021/06/18 05:05:32;;;;;;;8.75;6.15;;;24.40;85.50;;;;;;5053277;28;20044;-69
2021/06/18 05:07:58;;;;;;;7.70;5.72;;;24.60;85.40;;;;;;5071917;28;20462;-69
2021/06/18 05:10:25;;;;;;;9.43;5.65;;;24.60;86.00;;;;;;5053022;28;20030;-72
2021/06/18 05:12:51;;;;;;;8.88;6.70;;;24.60;85.30;;;;;;5071911;28;20134;-68
2021/06/18 05:15:17;;;;;;;8.95;5.97;;;24.60;85.20;;;;;;5053706;28;20021;-69
2021/06/18 05:17:43;;;;;;;12.98;6.13;;;24.60;85.20;;;;;;5070856;28;20334;-69
2021/06/18 05:20:10;;;;;;;12.60;6.18;;;24.70;84.80;;;;;;5053838;28;20460;-69
2021/06/18 05:22:36;;;;;;;8.93;5.55;;;24.80;84.70;;;;;;5070809;28;20032;-68
2021/06/18 05:25:02;;;;;;;11.95;6.35;;;24.80;84.60;;;;;;5071391;28;20033;-69
2021/06/18 05:27:28;;;;;;;7.65;5.75;;;25.00;85.20;;;;;;5053103;28;20056;-70
2021/06/18 05:29:53;;;;;;;6.85;5.40;;;25.00;84.80;;;;;;5053886;28;20063;-69
2021/06/18 05:32:19;;;;;;;10.48;5.90;;;25.10;83.90;;;;;;5053606;28;20143;-70
2021/06/18 05:34:45;;;;;;;11.75;5.55;;;25.20;83.90;;;;;;5055505;28;20119;-67
2021/06/18 05:37:11;;;;;;;9.30;5.65;;;25.30;85.80;;;;;;5062015;28;20169;-66
2021/06/18 05:39:37;;;;;;;6.80;3.85;;;25.40;84.60;;;;;;5070288;28;20478;-51
2021/06/18 05:42:03;;;;;;;5.03;3.65;;;25.60;85.60;;;;;;5086572;28;20128;-51
2021/06/18 05:44:29;;;;;;;4.85;3.75;;;25.90;86.30;;;;;;5070561;28;20037;-51
2021/06/18 05:46:54;;;;;;;9.82;4.03;;;26.10;85.10;;;;;;5071376;28;20028;-51
2021/06/18 05:49:20;;;;;;;4.50;2.85;;;26.30;85.00;;;;;;5087713;28;20028;-53
2021/06/18 05:51:46;;;;;;;7.45;3.85;;;26.40;85.10;;;;;;5090650;28;20028;-52
2021/06/18 05:54:11;;;;;;;4.43;3.60;;;26.60;84.30;;;;;;5090281;28;20035;-51
2021/06/18 05:56:39;;;;;;;11.60;4.95;;;26.70;84.10;;;;;;5071356;28;20358;-52
2021/06/18 05:59:05;;;;;;;8.95;3.63;;;26.80;83.70;;;;;;5089809;28;20024;-52
2021/06/18 06:01:30;;;;;;;9.07;5.15;;;26.90;83.40;;;;;;5085845;28;20051;-55
2021/06/18 06:03:56;;;;;;;5.68;4.68;;;27.00;83.10;;;;;;5087603;28;20063;-53
2021/06/18 06:06:22;;;;;;;8.73;4.18;;;27.00;81.60;;;;;;5070154;28;20158;-52
2021/06/18 06:08:51;;;;;;;10.75;4.50;;;27.10;82.40;;;;;;5069687;28;20035;-52
2021/06/18 06:11:17;;;;;;;8.18;5.05;;;27.10;82.20;;;;;;5086975;28;20036;-53
2021/06/18 06:13:43;;;;;;;10.18;4.55;;;27.10;81.50;;;;;;5087002;28;20067;-53
2021/06/18 06:16:08;;;;;;;13.88;5.00;;;27.00;81.60;;;;;;5050939;28;20422;-52
2021/06/18 06:18:34;;;;;;;7.80;4.72;;;27.00;82.10;;;;;;5060666;28;20052;-52
2021/06/18 06:21:00;;;;;;;10.52;4.85;;;26.90;82.10;;;;;;5082294;28;20040;-53
2021/06/18 06:23:25;;;;;;;6.85;4.25;;;27.00;82.10;;;;;;5085009;28;20400;-68
2021/06/18 06:25:51;;;;;;;5.53;4.50;;;27.00;82.20;;;;;;5075635;28;20122;-54
2021/06/18 06:28:17;;;;;;;4.45;3.97;;;27.00;81.00;;;;;;5084343;28;20090;-52
2021/06/18 06:30:42;;;;;;;8.88;4.50;;;27.10;82.10;;;;;;5086198;28;20453;-52
2021/06/18 06:33:08;;;;;;;5.88;4.38;;;27.20;81.80;;;;;;5069876;28;20047;-53
2021/06/18 06:35:34;;;;;;;9.20;4.40;;;27.20;80.80;;;;;;5069381;28;20465;-59
2021/06/18 06:38:00;;;;;;;10.10;4.50;;;27.20;80.80;;;;;;5087949;28;20387;-52
2021/06/18 06:40:27;;;;;;;5.45;3.70;;;27.30;80.80;;;;;;5070047;28;20366;-63
2021/06/18 06:42:53;;;;;;;6.10;3.40;;;27.30;79.30;;;;;;5068261;28;20056;-52
2021/06/18 06:45:19;;;;;;;8.88;4.68;;;27.30;80.40;;;;;;5087893;28;20105;-51
2021/06/18 06:47:50;;;;;;;6.88;4.60;;;27.30;80.00;;;;;;5068751;28;20042;-52
2021/06/18 06:50:17;;;;;;;5.43;4.55;;;27.40;79.20;;;;;;5069797;28;20028;-58
2021/06/18 06:52:42;;;;;;;6.50;4.15;;;27.40;77.80;;;;;;5068293;28;20114;-56
2021/06/18 06:55:09;;;;;;;6.45;4.07;;;27.50;79.80;;;;;;5087865;28;20100;-52
2021/06/18 06:57:35;;;;;;;4.75;4.10;;;27.50;79.20;;;;;;5069714;28;20097;-51
2021/06/18 07:00:01;;;;;;;9.75;4.47;;;27.60;79.00;;;;;;5070128;28;20057;-53
2021/06/18 07:02:27;;;;;;;7.15;4.20;;;27.70;78.50;;;;;;5069509;28;20036;-71
2021/06/18 07:04:53;;;;;;;12.32;4.65;;;27.70;78.70;;;;;;5070804;28;20046;-53
2021/06/18 07:07:18;;;;;;;9.18;5.63;;;27.80;77.50;;;;;;5069966;28;20509;-52
2021/06/18 07:09:44;;;;;;;5.88;4.55;;;27.70;77.90;;;;;;5088675;28;20086;-54
2021/06/18 07:12:10;;;;;;;7.70;4.75;;;27.70;77.80;;;;;;5070062;28;20391;-53
2021/06/18 07:14:39;;;;;;;6.03;4.82;;;27.70;77.60;;;;;;5070013;28;20366;-53
2021/06/18 07:17:05;;;;;;;4.82;4.35;;;27.70;77.70;;;;;;5093384;28;20036;-54
2021/06/18 07:19:31;;;;;;;8.45;4.78;;;27.60;77.90;;;;;;5074627;28;20481;-50
2021/06/18 07:21:57;;;;;;;7.70;4.55;;;27.70;78.20;;;;;;5107697;28;20104;-52
2021/06/18 07:24:24;;;;;;;7.97;5.20;;;27.80;77.90;;;;;;5092517;28;20346;-52
2021/06/18 07:26:51;;;;;;;11.65;5.18;;;28.00;77.50;;;;;;5092284;28;20027;-54
2021/06/18 07:29:17;;;;;;;8.30;4.90;;;27.90;77.10;;;;;;5092046;28;20035;-53
2021/06/18 07:31:43;;;;;;;8.52;4.80;;;28.00;77.70;;;;;;5072702;28;20111;-50
2021/06/18 07:34:09;;;;;;;9.57;4.75;;;28.00;78.00;;;;;;5092113;28;20107;-51
2021/06/18 07:36:35;;;;;;;15.75;5.43;;;28.00;77.90;;;;;;5073072;28;20080;-57
2021/06/18 07:39:01;;;;;;;9.02;6.93;;;28.10;77.40;;;;;;5098656;28;20028;-52
2021/06/18 07:41:27;;;;;;;18.30;9.25;;;28.30;77.20;;;;;;5072608;28;20410;-69
2021/06/18 07:43:53;;;;;;;10.07;6.78;;;28.40;77.10;;;;;;5091688;28;20040;-51
2021/06/18 07:46:20;;;;;;;14.23;7.10;;;28.50;77.10;;;;;;5073419;28;20024;-53
2021/06/18 07:48:46;;;;;;;6.50;5.13;;;28.40;76.70;;;;;;5091254;28;20479;-53
2021/06/18 07:51:12;;;;;;;25.30;8.35;;;28.40;76.30;;;;;;5072788;28;20032;-59
2021/06/18 07:53:38;;;;;;;13.45;6.03;;;28.40;76.80;;;;;;5091258;28;20095;-51
2021/06/18 07:56:04;;;;;;;12.32;5.50;;;28.50;76.90;;;;;;5073516;28;20531;-52
2021/06/18 07:58:30;;;;;;;14.07;6.55;;;28.60;76.50;;;;;;5071669;28;20023;-52
2021/06/18 08:00:56;;;;;;;7.07;5.05;;;28.70;76.10;;;;;;5073246;28;20342;-54
2021/06/18 08:03:22;;;;;;;9.05;4.55;;;28.90;75.40;;;;;;5071767;28;20047;-54
2021/06/18 08:05:51;;;;;;;10.13;4.60;;;29.00;74.50;;;;;;5072829;28;20112;-51
2021/06/18 08:08:17;;;;;;;10.18;5.30;;;29.00;74.20;;;;;;5049047;28;20028;-52
2021/06/18 08:10:43;;;;;;;6.93;4.97;;;29.10;75.00;;;;;;5052142;28;20378;-51
2021/06/18 08:13:08;;;;;;;7.85;4.50;;;29.20;75.20;;;;;;5053032;28;20106;-50
2021/06/18 08:15:34;;;;;;;6.65;4.40;;;29.10;74.00;;;;;;5056052;28;20073;-58
2021/06/18 08:18:00;;;;;;;5.22;4.15;;;29.20;72.90;;;;;;5089789;28;20052;-51
2021/06/18 08:20:26;;;;;;;9.93;5.20;;;29.30;72.10;;;;;;5072718;28;20030;-52
2021/06/18 08:22:54;;;;;;;5.18;4.18;;;29.50;72.90;;;;;;5090245;28;20036;-51
2021/06/18 08:25:20;;;;;;;4.75;4.22;;;29.70;72.00;;;;;;5071795;28;20548;-54
2021/06/18 08:27:46;;;;;;;7.35;4.28;;;29.90;71.60;;;;;;5070896;28;20491;-52
2021/06/18 08:30:12;;;;;;;6.78;3.88;;;29.80;71.70;;;;;;5090166;28;20063;-53
2021/06/18 08:32:38;;;;;;;7.82;4.57;;;29.90;72.10;;;;;;5070719;28;20027;-53
2021/06/18 08:35:05;;;;;;;7.38;4.88;;;29.80;72.20;;;;;;5071959;28;20425;-53
2021/06/18 08:37:30;;;;;;;4.75;4.20;;;29.90;72.00;;;;;;5070317;28;20119;-66
2021/06/18 08:39:56;;;;;;;19.02;4.65;;;30.00;72.30;;;;;;5071644;28;20197;-51
2021/06/18 08:42:23;;;;;;;7.90;4.15;;;30.10;72.00;;;;;;5071842;28;20031;-56
2021/06/18 08:44:49;;;;;;;8.25;5.75;;;30.30;71.70;;;;;;5088439;28;20641;-52
2021/06/18 08:47:15;;;;;;;7.25;5.28;;;30.50;71.20;;;;;;5087878;28;20048;-61
2021/06/18 08:49:41;;;;;;;7.75;4.50;;;30.50;70.60;;;;;;5087787;28;20442;-51
2021/06/18 08:52:07;;;;;;;7.20;4.28;;;30.40;70.90;;;;;;5070340;28;20032;-53
2021/06/18 08:54:42;;;;;;;13.40;5.65;;;30.50;71.10;;;;;;5088703;28;20076;-52
2021/06/18 08:57:12;;;;;;;7.65;4.38;;;30.40;70.50;;;;;;5071470;28;20104;-50
2021/06/18 08:59:39;;;;;;;14.68;5.20;;;30.50;71.30;;;;;;5070659;28;20028;-50
2021/06/18 09:02:05;;;;;;;8.25;4.85;;;30.80;70.70;;;;;;5089084;28;20107;-51
2021/06/18 09:04:31;;;;;;;5.60;4.63;;;30.80;70.70;;;;;;5089001;28;20032;-68
2021/06/18 09:06:58;;;;;;;5.18;4.20;;;30.90;70.90;;;;;;5071923;28;20024;-52
2021/06/18 09:09:26;;;;;;;7.90;3.90;;;31.10;70.80;;;;;;5091235;28;20449;-51
2021/06/18 09:11:53;;;;;;;4.78;4.32;;;31.20;70.70;;;;;;5089603;28;20039;-52
2021/06/18 09:14:32;;;;;;;9.63;5.57;;;31.20;70.70;;;;;;5071535;28;20036;-52
2021/06/18 09:17:17;;;;;;;7.72;4.05;;;31.40;70.60;;;;;;5065849;28;20037;-56
2021/06/18 09:19:48;;;;;;;7.28;4.30;;;31.40;69.80;;;;;;5076660;28;20131;-52
2021/06/18 09:22:18;;;;;;;5.40;4.00;;;31.60;70.80;;;;;;5105705;28;20066;-52
2021/06/18 09:25:02;;;;;;;7.22;3.83;;;31.80;70.70;;;;;;5071533;28;20049;-50
2021/06/18 09:27:34;;;;;;;7.03;4.80;;;31.90;70.20;;;;;;5105503;28;20020;-65
2021/06/18 09:30:19;;;;;;;6.82;5.03;;;32.10;69.80;;;;;;5072787;28;20024;-50
2021/06/18 09:32:57;;;;;;;6.90;4.20;;;32.30;69.20;;;;;;5112771;27;20032;-51
2021/06/18 09:35:22;;;;;;;10.38;5.18;;;32.30;69.00;;;;;;5074044;28;20046;-55
2021/06/18 09:37:56;;;;;;;9.55;4.50;;;32.50;69.60;;;;;;5090920;28;20119;-53
2021/06/18 09:40:24;;;;;;;9.07;4.82;;;32.60;68.90;;;;;;5102622;28;20035;-52
2021/06/18 09:43:10;;;;;;;12.82;4.70;;;32.60;69.30;;;;;;5049979;28;20047;-52
2021/06/18 09:45:37;;;;;;;7.07;4.93;;;32.70;70.30;;;;;;5066880;28;20067;-58
2021/06/18 09:48:21;;;;;;;10.65;4.90;;;32.90;69.60;;;;;;5050356;28;20063;-52
2021/06/18 09:50:49;;;;;;;9.55;4.80;;;32.90;69.20;;;;;;5068543;28;20068;-53
2021/06/18 09:53:21;;;;;;;15.95;4.47;;;33.00;69.40;;;;;;5051127;28;20036;-58
2021/06/18 09:55:59;;;;;;;6.43;5.28;;;33.10;68.30;;;;;;5068774;28;20197;-53
2021/06/18 09:58:39;;;;;;;9.23;3.92;;;33.10;68.70;;;;;;5069217;28;20032;-52
2021/06/18 10:01:25;;;;;;;6.25;4.72;;;33.00;68.70;;;;;;5078988;28;20128;-52
2021/06/18 10:04:17;;;;;;;9.82;4.90;;;33.10;69.30;;;;;;5088009;28;20106;-53
2021/06/18 10:06:43;;;;;;;7.88;4.53;;;33.30;68.40;;;;;;5005723;28;20042;-53
2021/06/18 10:09:11;;;;;;;11.85;4.18;;;33.10;68.10;;;;;;5006444;28;20045;-52
2021/06/18 10:11:40;;;;;;;6.82;5.25;;;33.30;68.80;;;;;;4989264;28;20292;-52
2021/06/18 10:14:05;;;;;;;6.53;4.28;;;33.50;68.50;;;;;;4989911;28;20132;-52
2021/06/18 10:16:33;;;;;;;7.28;4.80;;;33.40;68.80;;;;;;5005542;28;20153;-53
2021/06/18 10:18:59;;;;;;;4.85;4.15;;;33.60;68.80;;;;;;4989062;28;20148;-53
2021/06/18 10:21:28;;;;;;;9.82;4.50;;;33.70;68.10;;;;;;4989643;28;20029;-53
2021/06/18 10:24:00;;;;;;;8.25;4.60;;;33.70;68.00;;;;;;4989527;28;20042;-54
2021/06/18 10:26:27;;;;;;;6.88;4.43;;;33.80;68.50;;;;;;4989614;28;20225;-53
2021/06/18 10:28:58;;;;;;;4.22;3.83;;;33.70;68.00;;;;;;4989344;28;20062;-54
2021/06/18 10:31:37;;;;;;;11.68;4.43;;;33.80;68.00;;;;;;4969673;28;20045;-53
2021/06/18 10:34:16;;;;;;;7.78;4.15;;;33.80;68.40;;;;;;4986176;28;20042;-54
2021/06/18 10:36:44;;;;;;;9.60;3.60;;;34.10;67.70;;;;;;4985625;28;20045;-53
2021/06/18 10:39:16;;;;;;;6.10;4.05;;;34.10;66.40;;;;;;4986259;28;20038;-58
2021/06/18 10:41:54;;;;;;;8.70;4.30;;;34.10;67.60;;;;;;4985286;28;20050;-57
2021/06/18 10:44:39;;;;;;;10.30;3.97;;;34.40;66.40;;;;;;5040162;28;20093;-58
2021/06/18 10:47:05;;;;;;;10.20;3.88;;;34.60;66.50;;;;;;5066209;28;20029;-54
2021/06/18 10:49:39;;;;;;;6.88;3.53;;;34.60;65.60;;;;;;5066825;28;20110;-55
2021/06/18 10:52:16;;;;;;;6.93;4.47;;;34.40;65.10;;;;;;5067346;28;20036;-54
2021/06/18 10:54:50;;;;;;;7.63;3.85;;;34.40;65.50;;;;;;5082858;28;20469;-53
2021/06/18 10:57:18;;;;;;;4.32;3.92;;;34.70;65.60;;;;;;5066687;28;20047;-54
2021/06/18 11:00:09;;;;;;;7.80;4.07;;;34.50;64.30;;;;;;5065441;28;20040;-53
2021/06/18 11:02:38;;;;;;;4.35;3.95;;;34.40;65.10;;;;;;5063343;28;20140;-55
2021/06/18 11:05:07;;;;;;;7.35;4.53;;;34.10;65.00;;;;;;5066103;28;20031;-55
2021/06/18 11:07:38;;;;;;;11.70;4.83;;;34.30;66.60;;;;;;5066835;28;20127;-55
2021/06/18 11:10:14;;;;;;;5.68;4.28;;;34.70;65.60;;;;;;5067981;28;20046;-54
2021/06/18 11:12:48;;;;;;;4.22;3.83;;;34.80;62.90;;;;;;5065744;28;20407;-54
2021/06/18 11:15:16;;;;;;;4.45;3.20;;;34.70;60.70;;;;;;5065990;28;20462;-58
2021/06/18 11:17:52;;;;;;;8.23;3.67;;;34.80;59.90;;;;;;5066385;28;20519;-54
2021/06/18 11:20:33;;;;;;;13.35;4.45;;;34.90;60.90;;;;;;5067271;28;20108;-54
2021/06/18 11:23:07;;;;;;;4.25;3.70;;;34.80;61.60;;;;;;5065510;28;20109;-62
2021/06/18 11:25:42;;;;;;;6.28;3.40;;;35.10;62.20;;;;;;5065346;28;20399;-55
2021/06/18 11:28:26;;;;;;;7.05;3.65;;;35.20;61.60;;;;;;5067533;28;20025;-55
2021/06/18 11:31:08;;;;;;;6.15;3.65;;;35.40;61.20;;;;;;5068778;28;20020;-54
2021/06/18 11:33:39;;;;;;;11.77;3.88;;;35.20;59.00;;;;;;5102330;28;20142;-52
2021/06/18 11:36:06;;;;;;;14.60;4.57;;;35.20;59.20;;;;;;5103337;28;20028;-53
2021/06/18 11:38:34;;;;;;;9.15;3.50;;;35.00;58.50;;;;;;5102577;28;20119;-56
2021/06/18 11:41:04;;;;;;;5.43;3.80;;;35.10;59.30;;;;;;5103033;28;20130;-53
2021/06/18 11:43:30;;;;;;;9.70;3.67;;;35.40;59.60;;;;;;5086671;28;20028;-76
2021/06/18 11:45:57;;;;;;;5.30;3.83;;;35.50;59.40;;;;;;5086286;28;20063;-62
2021/06/18 11:48:23;;;;;;;6.88;3.88;;;35.30;59.10;;;;;;5072228;28;20040;-53
2021/06/18 11:50:49;;;;;;;4.47;3.85;;;35.40;59.60;;;;;;5086463;28;20603;-54
2021/06/18 11:53:17;;;;;;;6.15;4.22;;;35.30;59.60;;;;;;5069364;28;20028;-58
2021/06/18 11:55:55;;;;;;;6.45;4.40;;;35.50;59.40;;;;;;5052110;28;20424;-59
2021/06/18 11:58:41;;;;;;;5.10;4.00;;;35.60;60.20;;;;;;5087342;28;20075;-52
2021/06/18 12:01:15;;;;;;;6.03;3.63;;;35.10;57.70;;;;;;5090397;28;20438;-53
2021/06/18 12:03:51;;;;;;;5.80;4.00;;;34.90;59.10;;;;;;5090263;28;20028;-53
2021/06/18 12:06:34;;;;;;;6.18;3.78;;;34.90;59.30;;;;;;5072988;28;20519;-54
2021/06/18 12:09:09;;;;;;;5.47;3.60;;;35.00;60.60;;;;;;5072928;28;20135;-54
2021/06/18 12:11:56;;;;;;;12.00;4.30;;;34.80;58.80;;;;;;5070976;28;20473;-58
2021/06/18 12:14:22;;;;;;;4.93;3.75;;;34.70;59.00;;;;;;5072660;28;20599;-52
2021/06/18 12:16:49;;;;;;;6.55;3.60;;;34.70;59.20;;;;;;5074711;28;20140;-54
2021/06/18 12:19:23;;;;;;;15.95;4.45;;;34.60;58.80;;;;;;5057652;28;20080;-53
2021/06/18 12:22:08;;;;;;;7.53;3.95;;;34.60;58.80;;;;;;5073527;28;20024;-53
2021/06/18 12:24:34;;;;;;;4.22;3.47;;;34.40;57.00;;;;;;5073779;28;20082;-53
2021/06/18 12:27:02;;;;;;;7.30;4.20;;;34.20;56.40;;;;;;5073596;28;20063;-53
2021/06/18 12:29:28;;;;;;;9.05;4.57;;;34.10;56.70;;;;;;5092353;28;20024;-53
2021/06/18 12:31:55;;;;;;;5.40;4.13;;;34.20;57.40;;;;;;5073766;28;20107;-54
2021/06/18 12:34:22;;;;;;;4.70;3.80;;;34.20;56.80;;;;;;5074028;28;20087;-52
2021/06/18 12:36:59;;;;;;;6.95;3.78;;;34.20;57.20;;;;;;5092327;28;20051;-54
2021/06/18 12:39:25;;;;;;;6.25;3.70;;;34.30;56.50;;;;;;5092143;28;20024;-52
2021/06/18 12:41:52;;;;;;;5.32;3.50;;;34.00;56.30;;;;;;5091213;28;20626;-52
2021/06/18 12:44:29;;;;;;;6.90;3.45;;;33.90;55.50;;;;;;5092220;28;20029;-52
2021/06/18 12:46:56;;;;;;;11.93;3.95;;;33.80;55.30;;;;;;5073349;28;20130;-52
2021/06/18 12:49:28;;;;;;;12.93;3.83;;;33.80;55.70;;;;;;5074349;28;20110;-53
2021/06/18 12:52:09;;;;;;;7.80;3.17;;;33.30;56.90;;;;;;5056714;28;20036;-53
2021/06/18 12:54:34;;;;;;;9.57;3.47;;;33.40;55.30;;;;;;5073047;28;20040;-52